sensor_id;sensor_type;location;lat;lon;timestamp;temperature;humidity
14140;DHT22;7150;53.514;9.988;2023-07-02T00:00:36;18.60;99.90
14140;DHT22;7150;53.514;9.988;2023-07-02T00:03:04;18.70;99.90
14140;DHT22;7150;53.514;9.988;2023-07-02T00:05:29;18.70;99.90
14140;DHT22;7150;53.514;9.988;2023-07-02T00:07:55;18.60;99.90
14140;DHT22;7150;53.514;9.988;2023-07-02T00:10:20;18.50;99.90
14140;DHT22;7150;53.514;9.988;2023-07-02T00:12:46;18.60;99.90
14140;DHT22;7150;53.514;9.988;2023-07-02T00:15:11;18.60;99.90
14140;DHT22;7150;53.514;9.988;2023-07-02T00:17:37;18.70;99.90
14140;DHT22;7150;53.514;9.988;2023-07-02T00:20:06;18.80;99.90
14140;DHT22;7150;53.514;9.988;2023-07-02T00:22:31;18.80;99.90
14140;DHT22;7150;53.514;9.988;2023-07-02T00:25:01;18.70;99.90
14140;DHT22;7150;53.514;9.988;2023-07-02T00:27:27;18.50;99.90
14140;DHT22;7150;53.514;9.988;2023-07-02T00:29:52;18.40;99.90
14140;DHT22;7150;53.514;9.988;2023-07-02T00:32:18;18.50;99.90
14140;DHT22;7150;53.514;9.988;2023-07-02T00:34:43;18.50;99.90
14140;DHT22;7150;53.514;9.988;2023-07-02T00:37:09;18.50;99.90
14140;DHT22;7150;53.514;9.988;2023-07-02T00:39:34;18.60;99.90
14140;DHT22;7150;53.514;9.988;2023-07-02T00:42:03;18.60;99.90
14140;DHT22;7150;53.514;9.988;2023-07-02T00:44:29;18.60;99.90
14140;DHT22;7150;53.514;9.988;2023-07-02T00:46:55;18.60;99.90
14140;DHT22;7150;53.514;9.988;2023-07-02T00:49:20;18.60;99.90
14140;DHT22;7150;53.514;9.988;2023-07-02T00:51:46;18.70;99.90
14140;DHT22;7150;53.514;9.988;2023-07-02T00:54:12;18.80;99.90
14140;DHT22;7150;53.514;9.988;2023-07-02T00:56:37;18.80;99.90
14140;DHT22;7150;53.514;9.988;2023-07-02T00:59:03;18.70;99.90
14140;DHT22;7150;53.514;9.988;2023-07-02T01:01:28;18.90;99.90
14140;DHT22;7150;53.514;9.988;2023-07-02T01:04:03;18.90;99.90
14140;DHT22;7150;53.514;9.988;2023-07-02T01:06:34;19.00;99.90
14140;DHT22;7150;53.514;9.988;2023-07-02T01:09:02;19.10;99.90
14140;DHT22;7150;53.514;9.988;2023-07-02T01:11:40;19.10;99.90
14140;DHT22;7150;53.514;9.988;2023-07-02T01:16:34;19.10;99.90
14140;DHT22;7150;53.514;9.988;2023-07-02T01:19:04;19.00;99.90
14140;DHT22;7150;53.514;9.988;2023-07-02T01:21:31;19.00;99.90
14140;DHT22;7150;53.514;9.988;2023-07-02T01:23:58;19.00;99.90
14140;DHT22;7150;53.514;9.988;2023-07-02T01:26:30;19.00;99.90
14140;DHT22;7150;53.514;9.988;2023-07-02T01:28:59;19.00;99.90
14140;DHT22;7150;53.514;9.988;2023-07-02T01:31:25;19.00;99.90
14140;DHT22;7150;53.514;9.988;2023-07-02T01:33:51;18.90;99.90
14140;DHT22;7150;53.514;9.988;2023-07-02T01:36:17;18.90;99.90
14140;DHT22;7150;53.514;9.988;2023-07-02T01:38:42;18.90;99.90
14140;DHT22;7150;53.514;9.988;2023-07-02T01:41:07;18.90;99.90
14140;DHT22;7150;53.514;9.988;2023-07-02T01:43:33;19.00;99.90
14140;DHT22;7150;53.514;9.988;2023-07-02T01:45:58;19.00;99.90
14140;DHT22;7150;53.514;9.988;2023-07-02T01:48:24;19.00;99.90
14140;DHT22;7150;53.514;9.988;2023-07-02T01:50:50;18.90;99.90
14140;DHT22;7150;53.514;9.988;2023-07-02T01:53:15;18.90;99.90
14140;DHT22;7150;53.514;9.988;2023-07-02T01:55:41;19.00;99.90
14140;DHT22;7150;53.514;9.988;2023-07-02T01:58:06;19.00;99.90
14140;DHT22;7150;53.514;9.988;2023-07-02T02:00:32;19.00;99.90
14140;DHT22;7150;53.514;9.988;2023-07-02T02:02:57;18.80;99.90
14140;DHT22;7150;53.514;9.988;2023-07-02T02:05:23;18.80;99.90
14140;DHT22;7150;53.514;9.988;2023-07-02T02:07:48;18.80;99.90
14140;DHT22;7150;53.514;9.988;2023-07-02T02:10:14;18.80;99.90
14140;DHT22;7150;53.514;9.988;2023-07-02T02:12:40;18.80;99.90
14140;DHT22;7150;53.514;9.988;2023-07-02T02:15:06;18.90;99.90
14140;DHT22;7150;53.514;9.988;2023-07-02T02:17:32;18.90;99.90
14140;DHT22;7150;53.514;9.988;2023-07-02T02:19:57;18.90;99.90
14140;DHT22;7150;53.514;9.988;2023-07-02T02:22:23;18.90;99.90
14140;DHT22;7150;53.514;9.988;2023-07-02T02:24:48;19.00;99.90
14140;DHT22;7150;53.514;9.988;2023-07-02T02:27:14;19.00;99.90
14140;DHT22;7150;53.514;9.988;2023-07-02T02:29:39;19.00;99.90
14140;DHT22;7150;53.514;9.988;2023-07-02T02:32:05;19.00;99.90
14140;DHT22;7150;53.514;9.988;2023-07-02T02:34:30;19.00;99.90
14140;DHT22;7150;53.514;9.988;2023-07-02T02:36:56;18.90;99.90
14140;DHT22;7150;53.514;9.988;2023-07-02T02:39:22;18.90;99.90
14140;DHT22;7150;53.514;9.988;2023-07-02T02:41:47;18.90;99.90
14140;DHT22;7150;53.514;9.988;2023-07-02T02:44:13;18.70;99.90
14140;DHT22;7150;53.514;9.988;2023-07-02T02:46:38;18.70;99.90
14140;DHT22;7150;53.514;9.988;2023-07-02T02:49:04;18.70;99.90
14140;DHT22;7150;53.514;9.988;2023-07-02T02:51:29;18.70;99.90
14140;DHT22;7150;53.514;9.988;2023-07-02T02:53:55;18.70;99.90
14140;DHT22;7150;53.514;9.988;2023-07-02T02:56:20;18.80;99.90
14140;DHT22;7150;53.514;9.988;2023-07-02T02:58:46;18.70;99.90
14140;DHT22;7150;53.514;9.988;2023-07-02T03:01:11;18.70;99.90
14140;DHT22;7150;53.514;9.988;2023-07-02T03:03:40;18.50;99.90
14140;DHT22;7150;53.514;9.988;2023-07-02T03:06:11;18.50;99.90
14140;DHT22;7150;53.514;9.988;2023-07-02T03:08:36;18.40;99.90
14140;DHT22;7150;53.514;9.988;2023-07-02T03:11:02;18.40;99.90
14140;DHT22;7150;53.514;9.988;2023-07-02T03:13:27;18.50;99.90
14140;DHT22;7150;53.514;9.988;2023-07-02T03:15:53;18.40;99.90
14140;DHT22;7150;53.514;9.988;2023-07-02T03:18:18;18.40;99.90
14140;DHT22;7150;53.514;9.988;2023-07-02T03:20:44;18.20;99.90
14140;DHT22;7150;53.514;9.988;2023-07-02T03:23:09;18.30;99.90
14140;DHT22;7150;53.514;9.988;2023-07-02T03:25:35;18.40;99.90
14140;DHT22;7150;53.514;9.988;2023-07-02T03:28:00;18.40;99.90
14140;DHT22;7150;53.514;9.988;2023-07-02T03:30:25;18.40;99.90
14140;DHT22;7150;53.514;9.988;2023-07-02T03:32:51;18.40;99.90
14140;DHT22;7150;53.514;9.988;2023-07-02T03:35:16;18.40;99.90
14140;DHT22;7150;53.514;9.988;2023-07-02T03:37:42;18.30;99.90
14140;DHT22;7150;53.514;9.988;2023-07-02T03:40:09;18.30;99.90
14140;DHT22;7150;53.514;9.988;2023-07-02T03:42:34;18.40;99.90
14140;DHT22;7150;53.514;9.988;2023-07-02T03:45:00;18.40;99.90
14140;DHT22;7150;53.514;9.988;2023-07-02T03:47:25;18.30;99.90
14140;DHT22;7150;53.514;9.988;2023-07-02T03:49:51;18.30;99.90
14140;DHT22;7150;53.514;9.988;2023-07-02T03:52:16;18.30;99.90
14140;DHT22;7150;53.514;9.988;2023-07-02T03:54:42;18.30;99.90
14140;DHT22;7150;53.514;9.988;2023-07-02T03:57:07;18.40;99.90
14140;DHT22;7150;53.514;9.988;2023-07-02T03:59:34;18.30;99.90
14140;DHT22;7150;53.514;9.988;2023-07-02T04:01:59;18.40;99.90
14140;DHT22;7150;53.514;9.988;2023-07-02T04:04:24;18.40;99.90
14140;DHT22;7150;53.514;9.988;2023-07-02T04:06:50;18.30;99.90
14140;DHT22;7150;53.514;9.988;2023-07-02T04:09:15;18.20;99.90
14140;DHT22;7150;53.514;9.988;2023-07-02T04:11:41;18.30;99.90
14140;DHT22;7150;53.514;9.988;2023-07-02T04:14:06;18.30;99.90
14140;DHT22;7150;53.514;9.988;2023-07-02T04:16:32;18.30;99.90
14140;DHT22;7150;53.514;9.988;2023-07-02T04:18:57;18.30;99.90
14140;DHT22;7150;53.514;9.988;2023-07-02T04:21:23;18.40;99.90
14140;DHT22;7150;53.514;9.988;2023-07-02T04:23:48;18.50;99.90
14140;DHT22;7150;53.514;9.988;2023-07-02T04:26:14;18.40;99.90
14140;DHT22;7150;53.514;9.988;2023-07-02T04:28:39;18.40;99.90
14140;DHT22;7150;53.514;9.988;2023-07-02T04:31:05;18.40;99.90
14140;DHT22;7150;53.514;9.988;2023-07-02T04:33:30;18.30;99.90
14140;DHT22;7150;53.514;9.988;2023-07-02T04:36:03;18.20;99.90
14140;DHT22;7150;53.514;9.988;2023-07-02T04:38:29;18.20;99.90
14140;DHT22;7150;53.514;9.988;2023-07-02T04:40:54;18.20;99.90
14140;DHT22;7150;53.514;9.988;2023-07-02T04:43:27;18.20;99.90
14140;DHT22;7150;53.514;9.988;2023-07-02T04:45:55;18.20;99.90
14140;DHT22;7150;53.514;9.988;2023-07-02T04:48:20;18.10;99.90
14140;DHT22;7150;53.514;9.988;2023-07-02T04:50:46;18.20;99.90
14140;DHT22;7150;53.514;9.988;2023-07-02T04:53:11;18.10;99.90
14140;DHT22;7150;53.514;9.988;2023-07-02T04:55:37;18.00;99.90
14140;DHT22;7150;53.514;9.988;2023-07-02T04:58:02;18.00;99.90
14140;DHT22;7150;53.514;9.988;2023-07-02T05:00:28;18.10;99.90
14140;DHT22;7150;53.514;9.988;2023-07-02T05:02:53;18.00;99.90
14140;DHT22;7150;53.514;9.988;2023-07-02T05:05:19;18.10;99.90
14140;DHT22;7150;53.514;9.988;2023-07-02T05:07:44;18.10;99.90
14140;DHT22;7150;53.514;9.988;2023-07-02T05:10:10;18.10;99.90
14140;DHT22;7150;53.514;9.988;2023-07-02T05:12:35;18.10;99.90
14140;DHT22;7150;53.514;9.988;2023-07-02T05:15:01;18.10;99.90
14140;DHT22;7150;53.514;9.988;2023-07-02T05:17:26;18.10;99.90
14140;DHT22;7150;53.514;9.988;2023-07-02T05:19:52;18.20;99.90
14140;DHT22;7150;53.514;9.988;2023-07-02T05:22:18;18.20;99.90
14140;DHT22;7150;53.514;9.988;2023-07-02T05:24:44;18.20;99.90
14140;DHT22;7150;53.514;9.988;2023-07-02T05:27:09;18.30;99.90
14140;DHT22;7150;53.514;9.988;2023-07-02T05:29:35;18.30;99.90
14140;DHT22;7150;53.514;9.988;2023-07-02T05:32:00;18.30;99.90
14140;DHT22;7150;53.514;9.988;2023-07-02T05:34:26;18.10;99.90
14140;DHT22;7150;53.514;9.988;2023-07-02T05:36:51;18.10;99.90
14140;DHT22;7150;53.514;9.988;2023-07-02T05:39:17;18.00;99.90
14140;DHT22;7150;53.514;9.988;2023-07-02T05:41:42;18.10;99.90
14140;DHT22;7150;53.514;9.988;2023-07-02T05:44:08;18.20;99.90
14140;DHT22;7150;53.514;9.988;2023-07-02T05:46:33;18.20;99.90
14140;DHT22;7150;53.514;9.988;2023-07-02T05:48:59;18.10;99.90
14140;DHT22;7150;53.514;9.988;2023-07-02T05:51:25;18.20;99.90
14140;DHT22;7150;53.514;9.988;2023-07-02T05:53:51;18.00;99.90
14140;DHT22;7150;53.514;9.988;2023-07-02T05:56:17;18.10;99.90
14140;DHT22;7150;53.514;9.988;2023-07-02T05:58:43;18.20;99.90
14140;DHT22;7150;53.514;9.988;2023-07-02T06:01:08;18.30;99.90
14140;DHT22;7150;53.514;9.988;2023-07-02T06:03:34;18.40;99.90
14140;DHT22;7150;53.514;9.988;2023-07-02T06:05:59;18.40;99.90
14140;DHT22;7150;53.514;9.988;2023-07-02T06:08:25;18.60;99.90
14140;DHT22;7150;53.514;9.988;2023-07-02T06:10:51;18.60;99.90
14140;DHT22;7150;53.514;9.988;2023-07-02T06:13:16;18.60;99.90
14140;DHT22;7150;53.514;9.988;2023-07-02T06:15:42;18.50;99.90
14140;DHT22;7150;53.514;9.988;2023-07-02T06:18:08;18.60;99.90
14140;DHT22;7150;53.514;9.988;2023-07-02T06:20:33;18.60;99.90
14140;DHT22;7150;53.514;9.988;2023-07-02T06:22:59;18.60;99.90
14140;DHT22;7150;53.514;9.988;2023-07-02T06:25:24;18.40;99.90
14140;DHT22;7150;53.514;9.988;2023-07-02T06:27:50;18.60;99.90
14140;DHT22;7150;53.514;9.988;2023-07-02T06:30:15;18.60;99.90
14140;DHT22;7150;53.514;9.988;2023-07-02T06:32:41;18.50;99.90
14140;DHT22;7150;53.514;9.988;2023-07-02T06:35:07;18.60;99.90
14140;DHT22;7150;53.514;9.988;2023-07-02T06:37:33;18.70;99.90
14140;DHT22;7150;53.514;9.988;2023-07-02T06:39:58;18.80;99.90
14140;DHT22;7150;53.514;9.988;2023-07-02T06:42:25;18.90;99.90
14140;DHT22;7150;53.514;9.988;2023-07-02T06:44:50;18.80;99.90
14140;DHT22;7150;53.514;9.988;2023-07-02T06:47:16;18.70;99.90
14140;DHT22;7150;53.514;9.988;2023-07-02T06:49:42;18.70;99.90
14140;DHT22;7150;53.514;9.988;2023-07-02T06:52:08;18.70;99.90
14140;DHT22;7150;53.514;9.988;2023-07-02T06:54:33;18.70;99.90
14140;DHT22;7150;53.514;9.988;2023-07-02T06:56:59;18.70;99.90
14140;DHT22;7150;53.514;9.988;2023-07-02T06:59:25;18.70;99.90
14140;DHT22;7150;53.514;9.988;2023-07-02T07:01:51;18.70;99.90
14140;DHT22;7150;53.514;9.988;2023-07-02T07:04:16;18.70;99.90
14140;DHT22;7150;53.514;9.988;2023-07-02T07:06:42;18.70;99.90
14140;DHT22;7150;53.514;9.988;2023-07-02T07:09:08;18.80;99.90
14140;DHT22;7150;53.514;9.988;2023-07-02T07:11:34;18.90;99.90
14140;DHT22;7150;53.514;9.988;2023-07-02T07:13:59;18.90;99.90
14140;DHT22;7150;53.514;9.988;2023-07-02T07:16:25;18.80;99.90
14140;DHT22;7150;53.514;9.988;2023-07-02T07:18:50;18.90;99.90
14140;DHT22;7150;53.514;9.988;2023-07-02T07:21:16;18.90;99.90
14140;DHT22;7150;53.514;9.988;2023-07-02T07:23:41;18.90;99.90
14140;DHT22;7150;53.514;9.988;2023-07-02T07:26:07;19.00;99.90
14140;DHT22;7150;53.514;9.988;2023-07-02T07:28:32;19.10;99.90
14140;DHT22;7150;53.514;9.988;2023-07-02T07:30:58;19.20;99.90
14140;DHT22;7150;53.514;9.988;2023-07-02T07:33:23;19.00;99.70
14140;DHT22;7150;53.514;9.988;2023-07-02T07:35:49;18.90;99.80
14140;DHT22;7150;53.514;9.988;2023-07-02T07:38:14;19.00;99.90
14140;DHT22;7150;53.514;9.988;2023-07-02T07:40:40;19.10;99.90
14140;DHT22;7150;53.514;9.988;2023-07-02T07:43:06;19.10;99.00
14140;DHT22;7150;53.514;9.988;2023-07-02T07:45:33;19.00;98.30
14140;DHT22;7150;53.514;9.988;2023-07-02T07:47:58;19.10;97.70
14140;DHT22;7150;53.514;9.988;2023-07-02T07:50:24;19.10;97.70
14140;DHT22;7150;53.514;9.988;2023-07-02T07:52:49;19.20;98.10
14140;DHT22;7150;53.514;9.988;2023-07-02T07:55:16;19.30;98.30
14140;DHT22;7150;53.514;9.988;2023-07-02T07:57:42;19.00;98.00
14140;DHT22;7150;53.514;9.988;2023-07-02T08:00:07;19.00;98.10
14140;DHT22;7150;53.514;9.988;2023-07-02T08:02:35;19.00;98.00
14140;DHT22;7150;53.514;9.988;2023-07-02T08:05:01;19.00;98.00
14140;DHT22;7150;53.514;9.988;2023-07-02T08:07:27;19.20;97.70
14140;DHT22;7150;53.514;9.988;2023-07-02T08:09:52;19.20;96.80
14140;DHT22;7150;53.514;9.988;2023-07-02T08:12:18;19.10;96.40
14140;DHT22;7150;53.514;9.988;2023-07-02T08:14:43;19.10;96.50
14140;DHT22;7150;53.514;9.988;2023-07-02T08:17:09;19.20;96.60
14140;DHT22;7150;53.514;9.988;2023-07-02T08:19:34;19.30;96.30
14140;DHT22;7150;53.514;9.988;2023-07-02T08:22:00;19.40;96.20
14140;DHT22;7150;53.514;9.988;2023-07-02T08:24:25;19.50;95.10
14140;DHT22;7150;53.514;9.988;2023-07-02T08:26:50;19.50;94.50
14140;DHT22;7150;53.514;9.988;2023-07-02T08:29:16;19.50;93.70
14140;DHT22;7150;53.514;9.988;2023-07-02T08:31:41;19.40;92.70
14140;DHT22;7150;53.514;9.988;2023-07-02T08:34:08;19.20;91.40
14140;DHT22;7150;53.514;9.988;2023-07-02T08:36:34;19.30;91.50
14140;DHT22;7150;53.514;9.988;2023-07-02T08:38:59;19.30;91.70
14140;DHT22;7150;53.514;9.988;2023-07-02T08:41:25;19.40;91.50
14140;DHT22;7150;53.514;9.988;2023-07-02T08:43:54;19.50;91.20
14140;DHT22;7150;53.514;9.988;2023-07-02T08:46:20;19.70;91.50
14140;DHT22;7150;53.514;9.988;2023-07-02T08:48:47;19.70;90.80
14140;DHT22;7150;53.514;9.988;2023-07-02T08:51:12;19.60;89.70
14140;DHT22;7150;53.514;9.988;2023-07-02T08:53:38;19.60;89.90
14140;DHT22;7150;53.514;9.988;2023-07-02T08:56:04;19.60;90.00
14140;DHT22;7150;53.514;9.988;2023-07-02T08:58:29;19.70;89.40
14140;DHT22;7150;53.514;9.988;2023-07-02T09:01:11;19.60;88.50
14140;DHT22;7150;53.514;9.988;2023-07-02T09:03:38;19.60;89.00
14140;DHT22;7150;53.514;9.988;2023-07-02T09:06:08;19.60;89.60
14140;DHT22;7150;53.514;9.988;2023-07-02T09:08:34;19.60;90.30
14140;DHT22;7150;53.514;9.988;2023-07-02T09:11:10;19.70;90.20
14140;DHT22;7150;53.514;9.988;2023-07-02T09:16:09;19.80;90.30
14140;DHT22;7150;53.514;9.988;2023-07-02T09:18:34;19.70;90.70
14140;DHT22;7150;53.514;9.988;2023-07-02T09:21:00;19.70;90.50
14140;DHT22;7150;53.514;9.988;2023-07-02T09:23:34;19.60;91.10
14140;DHT22;7150;53.514;9.988;2023-07-02T09:26:03;19.50;91.20
14140;DHT22;7150;53.514;9.988;2023-07-02T09:28:28;19.50;91.50
14140;DHT22;7150;53.514;9.988;2023-07-02T09:30:55;19.50;91.60
14140;DHT22;7150;53.514;9.988;2023-07-02T09:33:28;19.60;91.90
14140;DHT22;7150;53.514;9.988;2023-07-02T09:35:54;19.50;91.70
14140;DHT22;7150;53.514;9.988;2023-07-02T09:38:20;19.60;92.60
14140;DHT22;7150;53.514;9.988;2023-07-02T09:40:51;19.60;92.30
14140;DHT22;7150;53.514;9.988;2023-07-02T09:43:17;19.50;91.60
14140;DHT22;7150;53.514;9.988;2023-07-02T09:45:45;19.50;92.20
14140;DHT22;7150;53.514;9.988;2023-07-02T09:48:15;19.60;91.90
14140;DHT22;7150;53.514;9.988;2023-07-02T09:50:44;19.60;92.60
14140;DHT22;7150;53.514;9.988;2023-07-02T09:53:11;19.70;92.20
14140;DHT22;7150;53.514;9.988;2023-07-02T09:55:41;19.80;91.80
14140;DHT22;7150;53.514;9.988;2023-07-02T09:58:07;19.80;91.70
14140;DHT22;7150;53.514;9.988;2023-07-02T10:00:33;19.80;91.50
14140;DHT22;7150;53.514;9.988;2023-07-02T10:02:59;20.00;91.50
14140;DHT22;7150;53.514;9.988;2023-07-02T10:05:29;20.00;91.20
14140;DHT22;7150;53.514;9.988;2023-07-02T10:08:10;20.20;90.60
14140;DHT22;7150;53.514;9.988;2023-07-02T10:10:36;20.00;90.50
14140;DHT22;7150;53.514;9.988;2023-07-02T10:13:02;19.90;90.60
14140;DHT22;7150;53.514;9.988;2023-07-02T10:15:29;19.90;91.40
14140;DHT22;7150;53.514;9.988;2023-07-02T10:17:59;20.00;90.80
14140;DHT22;7150;53.514;9.988;2023-07-02T10:20:36;19.90;90.90
14140;DHT22;7150;53.514;9.988;2023-07-02T10:23:04;20.00;91.20
14140;DHT22;7150;53.514;9.988;2023-07-02T10:25:31;20.10;91.30
14140;DHT22;7150;53.514;9.988;2023-07-02T10:27:58;20.10;90.60
14140;DHT22;7150;53.514;9.988;2023-07-02T10:30:33;20.00;91.00
14140;DHT22;7150;53.514;9.988;2023-07-02T10:33:13;20.10;90.90
14140;DHT22;7150;53.514;9.988;2023-07-02T10:35:40;20.10;89.20
14140;DHT22;7150;53.514;9.988;2023-07-02T10:38:26;20.10;90.10
14140;DHT22;7150;53.514;9.988;2023-07-02T10:40:55;20.10;89.70
14140;DHT22;7150;53.514;9.988;2023-07-02T10:43:28;20.10;90.00
14140;DHT22;7150;53.514;9.988;2023-07-02T10:45:55;20.10;90.00
14140;DHT22;7150;53.514;9.988;2023-07-02T10:48:20;19.90;90.10
14140;DHT22;7150;53.514;9.988;2023-07-02T10:50:46;20.00;90.60
14140;DHT22;7150;53.514;9.988;2023-07-02T10:53:18;20.00;90.70
14140;DHT22;7150;53.514;9.988;2023-07-02T10:55:44;20.00;90.90
14140;DHT22;7150;53.514;9.988;2023-07-02T10:58:11;20.10;92.30
14140;DHT22;7150;53.514;9.988;2023-07-02T11:00:47;20.10;90.80
14140;DHT22;7150;53.514;9.988;2023-07-02T11:03:31;20.30;90.90
14140;DHT22;7150;53.514;9.988;2023-07-02T11:05:56;20.20;90.40
14140;DHT22;7150;53.514;9.988;2023-07-02T11:08:22;20.20;90.40
14140;DHT22;7150;53.514;9.988;2023-07-02T11:10:48;20.20;90.10
14140;DHT22;7150;53.514;9.988;2023-07-02T11:13:18;20.20;90.10
14140;DHT22;7150;53.514;9.988;2023-07-02T11:15:45;20.30;90.90
14140;DHT22;7150;53.514;9.988;2023-07-02T11:18:14;20.40;91.20
14140;DHT22;7150;53.514;9.988;2023-07-02T11:20:42;20.60;90.40
14140;DHT22;7150;53.514;9.988;2023-07-02T11:23:21;20.50;90.60
14140;DHT22;7150;53.514;9.988;2023-07-02T11:25:59;20.60;90.30
14140;DHT22;7150;53.514;9.988;2023-07-02T11:28:25;20.60;91.10
14140;DHT22;7150;53.514;9.988;2023-07-02T11:30:51;20.70;91.00
14140;DHT22;7150;53.514;9.988;2023-07-02T11:33:17;20.60;91.20
14140;DHT22;7150;53.514;9.988;2023-07-02T11:35:42;20.60;90.00
14140;DHT22;7150;53.514;9.988;2023-07-02T11:38:11;20.70;90.30
14140;DHT22;7150;53.514;9.988;2023-07-02T11:40:37;20.70;90.90
14140;DHT22;7150;53.514;9.988;2023-07-02T11:43:02;20.80;85.70
14140;DHT22;7150;53.514;9.988;2023-07-02T11:45:28;20.90;85.10
14140;DHT22;7150;53.514;9.988;2023-07-02T11:47:54;21.00;90.10
14140;DHT22;7150;53.514;9.988;2023-07-02T11:50:19;21.10;83.90
14140;DHT22;7150;53.514;9.988;2023-07-02T11:52:45;21.20;83.10
14140;DHT22;7150;53.514;9.988;2023-07-02T11:55:11;21.40;82.70
14140;DHT22;7150;53.514;9.988;2023-07-02T11:57:36;21.30;81.40
14140;DHT22;7150;53.514;9.988;2023-07-02T12:00:02;21.30;81.50
14140;DHT22;7150;53.514;9.988;2023-07-02T12:02:27;21.20;81.20
14140;DHT22;7150;53.514;9.988;2023-07-02T12:04:53;21.20;81.60
14140;DHT22;7150;53.514;9.988;2023-07-02T12:07:18;21.20;80.90
14140;DHT22;7150;53.514;9.988;2023-07-02T12:09:44;21.00;80.20
14140;DHT22;7150;53.514;9.988;2023-07-02T12:12:10;21.30;80.30
14140;DHT22;7150;53.514;9.988;2023-07-02T12:14:36;22.00;78.60
14140;DHT22;7150;53.514;9.988;2023-07-02T12:17:03;22.50;81.80
14140;DHT22;7150;53.514;9.988;2023-07-02T12:19:28;23.40;89.50
14140;DHT22;7150;53.514;9.988;2023-07-02T12:21:54;23.40;87.20
14140;DHT22;7150;53.514;9.988;2023-07-02T12:24:19;23.60;87.80
14140;DHT22;7150;53.514;9.988;2023-07-02T12:26:45;23.60;87.10
14140;DHT22;7150;53.514;9.988;2023-07-02T12:29:10;23.10;86.10
14140;DHT22;7150;53.514;9.988;2023-07-02T12:31:36;22.70;85.70
14140;DHT22;7150;53.514;9.988;2023-07-02T12:34:02;22.20;86.00
14140;DHT22;7150;53.514;9.988;2023-07-02T12:36:28;21.80;88.30
14140;DHT22;7150;53.514;9.988;2023-07-02T12:38:53;21.70;88.90
14140;DHT22;7150;53.514;9.988;2023-07-02T12:41:19;21.60;88.90
14140;DHT22;7150;53.514;9.988;2023-07-02T12:43:44;21.60;89.50
14140;DHT22;7150;53.514;9.988;2023-07-02T12:46:10;21.70;89.60
14140;DHT22;7150;53.514;9.988;2023-07-02T12:48:35;21.90;90.30
14140;DHT22;7150;53.514;9.988;2023-07-02T12:51:01;22.00;90.30
14140;DHT22;7150;53.514;9.988;2023-07-02T12:53:27;22.10;89.30
14140;DHT22;7150;53.514;9.988;2023-07-02T12:55:53;22.40;89.10
14140;DHT22;7150;53.514;9.988;2023-07-02T12:58:20;22.80;88.30
14140;DHT22;7150;53.514;9.988;2023-07-02T13:00:46;23.10;88.20
14140;DHT22;7150;53.514;9.988;2023-07-02T13:03:13;23.30;86.80
14140;DHT22;7150;53.514;9.988;2023-07-02T13:05:38;23.20;84.40
14140;DHT22;7150;53.514;9.988;2023-07-02T13:08:05;23.10;86.00
14140;DHT22;7150;53.514;9.988;2023-07-02T13:10:30;23.00;85.60
14140;DHT22;7150;53.514;9.988;2023-07-02T13:12:57;23.00;86.70
14140;DHT22;7150;53.514;9.988;2023-07-02T13:15:23;22.70;87.10
14140;DHT22;7150;53.514;9.988;2023-07-02T13:17:48;22.50;88.20
14140;DHT22;7150;53.514;9.988;2023-07-02T13:20:14;22.30;89.20
14140;DHT22;7150;53.514;9.988;2023-07-02T13:22:40;22.10;90.00
14140;DHT22;7150;53.514;9.988;2023-07-02T13:25:06;22.10;90.40
14140;DHT22;7150;53.514;9.988;2023-07-02T13:27:31;22.10;90.00
14140;DHT22;7150;53.514;9.988;2023-07-02T13:29:57;22.00;89.50
14140;DHT22;7150;53.514;9.988;2023-07-02T13:32:22;22.00;90.00
14140;DHT22;7150;53.514;9.988;2023-07-02T13:34:48;22.00;90.50
14140;DHT22;7150;53.514;9.988;2023-07-02T13:37:13;21.80;90.60
14140;DHT22;7150;53.514;9.988;2023-07-02T13:39:43;21.70;90.90
14140;DHT22;7150;53.514;9.988;2023-07-02T13:42:08;21.60;90.70
14140;DHT22;7150;53.514;9.988;2023-07-02T13:44:34;21.80;91.20
14140;DHT22;7150;53.514;9.988;2023-07-02T13:46:59;21.90;90.00
14140;DHT22;7150;53.514;9.988;2023-07-02T13:49:25;21.90;89.10
14140;DHT22;7150;53.514;9.988;2023-07-02T13:51:50;21.90;89.90
14140;DHT22;7150;53.514;9.988;2023-07-02T13:54:16;21.90;90.00
14140;DHT22;7150;53.514;9.988;2023-07-02T13:56:44;22.00;89.80
14140;DHT22;7150;53.514;9.988;2023-07-02T13:59:09;21.90;90.00
14140;DHT22;7150;53.514;9.988;2023-07-02T14:01:35;21.90;90.50
14140;DHT22;7150;53.514;9.988;2023-07-02T14:04:02;22.00;90.90
14140;DHT22;7150;53.514;9.988;2023-07-02T14:06:28;21.90;91.00
14140;DHT22;7150;53.514;9.988;2023-07-02T14:08:53;21.70;91.30
14140;DHT22;7150;53.514;9.988;2023-07-02T14:11:19;21.60;91.60
14140;DHT22;7150;53.514;9.988;2023-07-02T14:13:45;21.60;91.50
14140;DHT22;7150;53.514;9.988;2023-07-02T14:16:10;21.70;91.70
14140;DHT22;7150;53.514;9.988;2023-07-02T14:18:36;21.80;91.20
14140;DHT22;7150;53.514;9.988;2023-07-02T14:21:01;21.90;90.90
14140;DHT22;7150;53.514;9.988;2023-07-02T14:23:28;21.80;90.50
14140;DHT22;7150;53.514;9.988;2023-07-02T14:25:53;21.80;90.30
14140;DHT22;7150;53.514;9.988;2023-07-02T14:28:19;21.80;90.50
14140;DHT22;7150;53.514;9.988;2023-07-02T14:30:44;22.00;90.40
14140;DHT22;7150;53.514;9.988;2023-07-02T14:33:10;22.00;90.30
14140;DHT22;7150;53.514;9.988;2023-07-02T14:35:36;21.90;90.30
14140;DHT22;7150;53.514;9.988;2023-07-02T14:38:02;21.70;90.30
14140;DHT22;7150;53.514;9.988;2023-07-02T14:40:27;21.70;90.60
14140;DHT22;7150;53.514;9.988;2023-07-02T14:42:53;21.80;90.20
14140;DHT22;7150;53.514;9.988;2023-07-02T14:45:18;22.00;89.80
14140;DHT22;7150;53.514;9.988;2023-07-02T14:47:44;22.10;89.40
14140;DHT22;7150;53.514;9.988;2023-07-02T14:50:09;22.20;88.00
14140;DHT22;7150;53.514;9.988;2023-07-02T14:52:35;22.00;87.10
14140;DHT22;7150;53.514;9.988;2023-07-02T14:55:00;21.90;87.70
14140;DHT22;7150;53.514;9.988;2023-07-02T14:57:27;21.90;88.00
14140;DHT22;7150;53.514;9.988;2023-07-02T14:59:53;21.70;88.00
14140;DHT22;7150;53.514;9.988;2023-07-02T15:02:18;21.70;88.80
14140;DHT22;7150;53.514;9.988;2023-07-02T15:04:44;21.80;88.70
14140;DHT22;7150;53.514;9.988;2023-07-02T15:07:10;22.10;89.10
14140;DHT22;7150;53.514;9.988;2023-07-02T15:09:36;22.60;88.60
14140;DHT22;7150;53.514;9.988;2023-07-02T15:12:02;22.80;88.20
14140;DHT22;7150;53.514;9.988;2023-07-02T15:14:27;22.60;86.50
14140;DHT22;7150;53.514;9.988;2023-07-02T15:16:53;23.00;87.30
14140;DHT22;7150;53.514;9.988;2023-07-02T15:19:19;23.90;71.50
14140;DHT22;7150;53.514;9.988;2023-07-02T15:21:44;25.50;69.50
14140;DHT22;7150;53.514;9.988;2023-07-02T15:24:09;26.30;65.30
14140;DHT22;7150;53.514;9.988;2023-07-02T15:26:37;26.60;62.90
14140;DHT22;7150;53.514;9.988;2023-07-02T15:29:03;27.00;61.30
14140;DHT22;7150;53.514;9.988;2023-07-02T15:31:28;26.40;61.10
14140;DHT22;7150;53.514;9.988;2023-07-02T15:33:54;26.00;62.40
14140;DHT22;7150;53.514;9.988;2023-07-02T15:36:20;25.60;62.90
14140;DHT22;7150;53.514;9.988;2023-07-02T15:38:47;25.20;63.40
14140;DHT22;7150;53.514;9.988;2023-07-02T15:41:15;24.90;64.60
14140;DHT22;7150;53.514;9.988;2023-07-02T15:43:42;24.60;65.40